Kitchener, Canada
Current Conditions -  °F | °C
As of 5:00 AM on Sunday 23 Nov 2014 (Local Time) from CYKF Reporting Station
Overcast Overcast  
Wind Chill: 36°   Ceiling: 2000
Heat Index: 41°   Visibility: 8mi
Dew Point: 39°   Wind: 7mph
Humidity: 93%   Direction: 210°SSW
Pressure: 29.94"   Gusts: NA
Location:  43.45°N, 80.49°W
Report Text: CYKF 231000Z AUTO 21006KT 8SM BKN020 BKN038 OVC046 05/04 A2994 RMK SLP149
Loading
Personal Weather Stations






























Interactive Weather Map New forecast layout! Learn more

10-Day Weather Forecast

Advertisements
Track Severe Weather on mobile